Tiempo atmosférico en la estación meteorológica de Camaleño, Fuente De, Cantabria (1090 m.)



Fecha
DESCASC
Temp. máxima en grados centígrados (hora)
DESCASC
Temp. mínima en grados centígrados (hora)
DESCASC
Temp. media en grados centígrados
DESCASC
Racha de viento máxima en m/sg (hora)
DESCASC
Velocidad máxima media en intervalos de 10 minutos(hora)
DESCASC
Precipitaciones diarias en mm
DESCASC
Precipitaciones de 00:00 a 06:00 en mm
DESCASC
Precipitaciones de 06:00 a 12:00 en mm
DESCASC
Precipitaciones de 12:00 a 18:00 en mm
DESCASC
Precipitaciones de 18:00 a 24:00 en mm
DESCASC
20-05-2018 18.9 (16:50) 4.6 (08:00) 11.7 4.72 (15:50) 1.94 (13:40) 0 0 0 0 0
19-05-2018 19.4 (15:50) 5.7 (06:50) 12.5 5.28 (14:50) 2.22 (17:50) 0 0 0 0 0
18-05-2018 15 (16:20) 5.7 (00:00) 10.3 3.61 (16:10) 1.67 (14:40) 0 0 0 0 0
17-05-2018 17.1 (14:30) 5.2 (00:00) 11.2 5.83 (19:20) 2.22 (14:30) 0 0 0 0 0
16-05-2018 17.7 (17:30) 2.3 (00:00) 10 6.11 (14:20) 1.94 (15:00) 0 0 0 0 0
15-05-2018 16.1 (16:30) 0 (00:00) 8.1 4.72 (17:40) 1.67 (16:20) 0 0 0 0 0
14-05-2018 13.9 (17:30) 0.9 (00:00) 7.4 6.39 (15:00) 2.5 (15:20) 19.8 14.2 5.6 0 0
13-05-2018 7.5 (14:10) 1.3 (00:00) 4.4 10.28 (05:20) 3.61 (20:40) 5.8 0.2 1.4 1.6 2.6
12-05-2018 10.8 (12:40) 1.9 (00:00) 6.4 9.17 (15:00) 4.17 (14:20) 3.4 0.6 0.6 1.6 0.6
11-05-2018 19.2 (14:30) 6.2 (00:10) 12.7 8.61 (17:00) 3.06 (09:30) 0 0 0 0 0
10-05-2018 14.1 (17:20) 4.3 (00:00) 9.2 5.56 (16:30) 1.67 (10:30) 0 0 0 0 0
09-05-2018 18.2 (15:20) 4.9 (00:00) 11.6 5.56 (14:20) 2.22 (17:30) 0 0 0 0 0
08-05-2018 18 (13:30) 7.4 (00:00) 12.7 5.28 (16:50) 1.94 (15:00) 0 0 0 0 0
07-05-2018 21.3 (17:10) 10.3 (00:00) 15.8 5.83 (17:20) 3.33 (16:50) 0 0 0 0 0
06-05-2018 21.5 (16:30) 7.7 (00:00) 14.6 4.44 (15:50) 1.94 (18:00) 0 0 0 0 0
05-05-2018 17.7 (16:00) 2.1 (00:00) 9.9 6.39 (15:10) 2.5 (15:10) 0 0 0 0 0
04-05-2018 12 (18:00) 0.3 (00:00) 6.2 6.11 (12:10) 2.22 (15:10) 0 0 0 0 0
03-05-2018 9.7 (15:50) 3 (00:00) 6.3 9.17 (10:50) 4.72 (16:30) 2.2 2.2 0 0 0
02-05-2018 10.4 (13:20) 3.4 (00:00) 6.9 7.5 (07:10) 3.33 (07:10) 13 0.4 1.8 4.2 6.6
01-05-2018 12.3 (16:50) -1.8 (07:50) 5.3 7.22 (16:10) 2.78 (16:10) 0.4 0.2 0.2 0 0
30-04-2018 5.5 (14:00) 0.5 (00:00) 3 4.72 (19:20) 1.67 (15:30) 7.2 0.6 1.8 2.4 2.4
29-04-2018 9.6 (13:50) 2 (00:00) 5.8 6.67 (17:10) 2.5 (15:00) 5.4 0 0.2 2.8 2.4
28-04-2018 5.6 (14:00) 2.9 (00:00) 4.3 2.5 (01:10) 1.39 (19:10) 14 0.6 0.2 8.8 4.4
27-04-2018 14.5 (12:50) 3.7 (00:00) 9.1 5.83 (14:20) 2.5 (14:00) 3.4 0.2 0 0.2 3
26-04-2018 15.9 (18:30) 4.6 (00:00) 10.2 4.44 (17:20) 1.67 (17:40) 0.6 0.4 0.2 0 0
25-04-2018 14.3 (12:30) 6.8 (00:00) 10.6 4.17 (12:40) 1.94 (12:50) 1.4 0 0 0 1.4
24-04-2018 24.2 (14:20) 10 (00:00) 17.1 6.39 (18:00) 2.22 (13:30) 0 0 0 0 0
23-04-2018 21.2 (16:00) 7.1 (00:00) 14.2 5.56 (15:50) 1.94 (15:50) 0 0 0 0 0
22-04-2018 19.8 (17:00) 10 (00:00) 14.9 5.28 (14:50) 3.33 (17:10) 0 0 0 0 0

Gráficas

Temp. máximas Temp. mínimas Temp. medias Precipitaciones Rachas de viento máximas Velocidades máximas media en intervalos de 10 minutos

Datos horarios

Fecha y hora oficial Temperatura (ºC) Velocidad del viento (km/h) Dirección del viento Racha (km/h) Dirección de racha Precipitación (mm) Presión (hPa) Tendencia (hPa) Humedad (%)
2018-05-21 23:00:00 10.1 0 Calma 5 Oeste 0 -- -- 92
2018-05-21 22:00:00 10.9 2 Oeste 5 Oeste 0 -- -- 86
2018-05-21 21:00:00 13.7 0 Calma 5 Sur 0 -- -- 78
2018-05-21 20:00:00 14.2 3 Sudoeste 9 Sur 0 -- -- 71
2018-05-21 19:00:00 15 3 Oeste 17 Sudoeste 0 -- -- 75
2018-05-21 18:00:00 15.1 6 Sudoeste 18 Oeste 0 -- -- 60
2018-05-21 17:00:00 14.5 2 Oeste 33 Oeste 0.8 -- -- 79
2018-05-21 16:00:00 17.2 4 Noroeste 10 Sudoeste 0 -- -- 62
2018-05-21 15:00:00 17.9 2 Sur 9 Noroeste 0 -- -- 47
2018-05-21 14:00:00 17.6 3 Este 8 Sudoeste 0 -- -- 61
2018-05-21 13:00:00 17.6 3 Sur 14 Este 0 -- -- 51
2018-05-21 12:00:00 17.1 4 Sudoeste 17 Norte 0 -- -- 61
2018-05-21 11:00:00 18.9 3 Nordeste 11 Norte 0 -- -- 42
2018-05-21 10:00:00 14.1 3 Norte 6 Noroeste 0 -- -- 65
2018-05-21 09:00:00 9.4 0 Calma 4 Noroeste 0 -- -- 79
2018-05-21 08:00:00 8.6 0 Calma 5 Oeste 0 -- -- 83
2018-05-21 07:00:00 8.8 4 Oeste 6 Oeste 0 -- -- 83
2018-05-21 06:00:00 9.5 2 Noroeste 8 Oeste 0 -- -- 80
2018-05-21 05:00:00 11.3 0 Calma 19 Oeste 0 -- -- 73
2018-05-21 04:00:00 7.2 3 Noroeste 11 Oeste 0 -- -- 94
2018-05-21 03:00:00 7 2 Sur 5 Sur 0 -- -- 96
2018-05-21 02:00:00 7.2 0 Calma 4 Sur 0 -- -- 95
2018-05-21 01:00:00 7.7 0 Calma -- -- 0 -- -- 92
2018-05-21 00:00:00 8.5 0 Calma 3 Oeste 0 -- -- 89
2018-05-20 23:00:00 9.1 2 Sudoeste 5 Oeste 0 -- -- 86
2018-05-20 22:00:00 10.3 3 Sudoeste 5 Sudoeste 0 -- -- 80
2018-05-20 21:00:00 12.3 0 Calma 9 Sudoeste 0 -- -- 73
2018-05-20 20:00:00 14.1 2 Sudoeste 9 Sudoeste 0 -- -- 65
2018-05-20 19:00:00 16.8 4 Oeste 13 Sudoeste 0 -- -- 54
2018-05-20 18:00:00 18.7 5 Sudoeste 14 Sudoeste 0 -- -- 49
2018-05-20 17:00:00 18.8 5 Sudoeste 14 Sur 0 -- -- 47
2018-05-20 16:00:00 18.6 5 Sur 17 Sudeste 0 -- -- 42
2018-05-20 15:00:00 18.3 5 Sur 17 Sudoeste 0 -- -- 35
2018-05-20 14:00:00 17.6 5 Sudoeste 15 Sur 0 -- -- 34
2018-05-20 13:00:00 16.5 4 Noroeste 14 Sudoeste 0 -- -- 39
2018-05-20 12:00:00 15.6 4 Sudoeste 10 Sudoeste 0 -- -- 40
2018-05-20 11:00:00 13.7 5 Este 12 Este 0 -- -- 51
2018-05-20 10:00:00 8.6 0 Calma 4 Este 0 -- -- 73
2018-05-20 09:00:00 5 0 Calma 3 Noroeste 0 -- -- 94
2018-05-20 08:00:00 4.6 0 Calma 3 Sudoeste 0 -- -- 97
2018-05-20 07:00:00 4.7 0 Calma 3 Noroeste 0 -- -- 98
2018-05-20 06:00:00 5.1 0 Calma 4 Noroeste 0 -- -- 98
2018-05-20 05:00:00 5.6 2 Oeste 3 Noroeste 0 -- -- 98
2018-05-20 04:00:00 6.2 0 Calma 3 Sur 0 -- -- 97
2018-05-20 03:00:00 6.8 0 Calma 4 Oeste 0 -- -- 96
2018-05-20 02:00:00 7.5 0 Calma 4 Oeste 0 -- -- 94
2018-05-20 01:00:00 8.5 0 Calma 4 Sudoeste 0 -- -- 93
2018-05-20 00:00:00 9.6 0 Calma 4 Este 0 -- -- 92
2018-05-19 23:00:00 10.3 2 Sudoeste 4 Noroeste 0 -- -- 88
2018-05-19 22:00:00 10.7 0 Calma 5 Sudoeste 0 -- -- 86
2018-05-19 21:00:00 12.4 3 Sudoeste 9 Noroeste 0 -- -- 79
2018-05-19 20:00:00 13.9 5 Noroeste 12 Sudoeste 0 -- -- 71
2018-05-19 19:00:00 16 7 Oeste 15 Oeste 0 -- -- 63
2018-05-19 18:00:00 16.7 6 Este 16 Este 0 -- -- 59
2018-05-19 17:00:00 17.6 5 Sudeste 18 Sur 0 -- -- 56
2018-05-19 16:00:00 19.2 6 Sur 18 Sur 0 -- -- 54
2018-05-19 15:00:00 17.8 5 Sudoeste 19 Sur 0 -- -- 55
2018-05-19 14:00:00 19.1 6 Sur 16 Sudoeste 0 -- -- 49
2018-05-19 13:00:00 18.4 5 Sudoeste 17 Sur 0 -- -- 49
2018-05-19 12:00:00 17.1 6 Sur 14 Sudeste 0 -- -- 56
2018-05-19 11:00:00 15 4 Este 10 Nordeste 0 -- -- 61
2018-05-19 10:00:00 11.3 0 Calma 3 Este 0 -- -- 84
2018-05-19 09:00:00 7.7 0 Calma 3 Oeste 0 -- -- 93
2018-05-19 08:00:00 6.5 0 Calma 4 Oeste 0 -- -- 95
2018-05-19 07:00:00 5.8 0 Calma 7 Oeste 0 -- -- 95
2018-05-19 06:00:00 5.9 0 Calma 4 Sudoeste 0 -- -- 94
2018-05-19 05:00:00 6.2 0 Calma 6 Oeste 0 -- -- 95
2018-05-19 04:00:00 6.5 0 Calma 6 Sudoeste 0 -- -- 96
2018-05-19 03:00:00 6.8 0 Calma 4 Noroeste 0 -- -- 97
2018-05-19 02:00:00 7.3 0 Calma 4 Sudoeste 0 -- -- 96
2018-05-19 01:00:00 7.9 0 Calma 3 Oeste 0 -- -- 94
2018-05-19 00:00:00 8.9 0 Calma 4 Oeste 0 -- -- 93
2018-05-18 23:00:00 9.7 2 Sudoeste 4 Sur 0 -- -- 91
2018-05-18 22:00:00 10.9 0 Calma 6 Sudoeste 0 -- -- 86
2018-05-18 21:00:00 11.5 0 Calma 5 Oeste 0 -- -- 83
2018-05-18 20:00:00 13.7 3 Sudoeste 10 Oeste 0 -- -- 71
2018-05-18 19:00:00 14.4 4 Sur 10 Sudeste 0 -- -- 65
2018-05-18 18:00:00 14.8 3 Oeste 13 Sudoeste 0 -- -- 67
2018-05-18 17:00:00 14.8 5 Oeste 13 Sudoeste 0 -- -- 63
2018-05-18 16:00:00 14.7 5 Sudoeste 13 Sur 0 -- -- 64
2018-05-18 15:00:00 14.4 5 Sur 13 Sudoeste 0 -- -- 65
2018-05-18 14:00:00 13.7 5 Sudoeste 13 Sudoeste 0 -- -- 65
2018-05-18 13:00:00 13 5 Noroeste 9 Oeste 0 -- -- 68
2018-05-18 12:00:00 11.7 0 Calma 5 Nordeste 0 -- -- 71
2018-05-18 11:00:00 10.1 3 Norte 6 Oeste 0 -- -- 83
2018-05-18 10:00:00 8.8 0 Calma 7 Noroeste 0 -- -- 87
2018-05-18 09:00:00 7.3 0 Calma 2 Noroeste 0 -- -- 98
2018-05-18 08:00:00 5.9 0 Calma 3 Noroeste 0 -- -- 99
2018-05-18 07:00:00 5.8 2 Oeste 5 Sudoeste 0 -- -- 97
2018-05-18 06:00:00 6.3 0 Calma 0 Calma 0 -- -- 96
2018-05-18 05:00:00 6.7 0 Calma 0 Calma 0 -- -- 95
2018-05-18 04:00:00 7.1 0 Calma 0 Calma 0 -- -- 95
2018-05-18 03:00:00 7.4 0 Calma 0 Calma 0 -- -- 95
2018-05-18 02:00:00 8 0 Calma 5 Sudoeste 0 -- -- 93
2018-05-18 01:00:00 8.7 0 Calma 5 Oeste 0 -- -- 92
2018-05-18 00:00:00 9.2 2 Sur 5 Sudoeste 0 -- -- 90
2018-05-17 23:00:00 10.3 0 Calma 6 Sudoeste 0 -- -- 86
2018-05-17 22:00:00 10.9 3 Noroeste 17 Oeste 0 -- -- 81
2018-05-17 21:00:00 11.4 7 Sur 17 Sudoeste 0 -- -- 76
2018-05-17 20:00:00 12.1 6 Sudoeste 21 Sudoeste 0 -- -- 70
2018-05-17 19:00:00 12.7 4 Sudoeste 19 Sur 0 -- -- 67
2018-05-17 18:00:00 13.5 6 Sudoeste 19 Sudoeste 0 -- -- 63
2018-05-17 17:00:00 14.5 6 Sur 19 Sudoeste 0 -- -- 63
2018-05-17 16:00:00 16.2 6 Sudoeste 18 Sudoeste 0 -- -- 53
2018-05-17 15:00:00 17.1 6 Sudoeste 18 Sudoeste 0 -- -- 49
2018-05-17 14:00:00 16.9 7 Sudeste 18 Oeste 0 -- -- 51
2018-05-17 13:00:00 14.2 4 Oeste 13 Noroeste 0 -- -- 58
2018-05-17 12:00:00 14.8 4 Este 12 Sur 0 -- -- 59
2018-05-17 11:00:00 13.9 4 Sur 11 Sudoeste 0 -- -- 65
2018-05-17 10:00:00 10.3 3 Nordeste 6 Este 0 -- -- 86
2018-05-17 09:00:00 7.5 0 Calma 5 Noroeste 0 -- -- 96
2018-05-17 08:00:00 6.9 0 Calma 4 Este 0 -- -- 98
2018-05-17 07:00:00 6.3 0 Calma 3 Sudoeste 0 -- -- 99
2018-05-17 06:00:00 5.3 0 Calma 3 Sudoeste 0 -- -- 98
2018-05-17 05:00:00 5.2 0 Calma 4 Oeste 0 -- -- 98
2018-05-17 04:00:00 5.2 0 Calma 3 Nordeste 0 -- -- 98
2018-05-17 03:00:00 5.7 0 Calma 3 Sudoeste 0 -- -- 98
2018-05-17 02:00:00 6 0 Calma 4 Noroeste 0 -- -- 97
2018-05-17 01:00:00 6.6 0 Calma 2 Sur 0 -- -- 95
2018-05-17 00:00:00 7.5 0 Calma 3 Sudoeste 0 -- -- 95
2018-05-16 23:00:00 7.9 2 Sudoeste 3 Sudoeste 0 -- -- 92
2018-05-16 22:00:00 9.5 0 Calma 8 Sudoeste 0 -- -- 85
2018-05-16 21:00:00 11.5 3 Sudoeste 10 Oeste 0 -- -- 76
2018-05-16 20:00:00 13.4 3 Oeste 11 Noroeste 0 -- -- 66
2018-05-16 19:00:00 15.8 5 Oeste 13 Sudoeste 0 -- -- 58
2018-05-16 18:00:00 17.6 4 Sur 16 Sudoeste 0 -- -- 49
2018-05-16 17:00:00 17.4 5 Oeste 17 Este 0 -- -- 49
2018-05-16 16:00:00 16.7 6 Sudoeste 17 Sur 0 -- -- 52
2018-05-16 15:00:00 16.6 7 Sudoeste 22 Sudoeste 0 -- -- 54
2018-05-16 14:00:00 15.4 5 Sur 15 Sur 0 -- -- 55
2018-05-16 13:00:00 14.1 4 Este 13 Sudoeste 0 -- -- 62
2018-05-16 12:00:00 12.4 5 Este 12 Sudoeste 0 -- -- 64
2018-05-16 11:00:00 9.7 4 Nordeste 9 Este 0 -- -- 71
2018-05-16 10:00:00 5.4 3 Este 6 Este 0 -- -- 90
2018-05-16 09:00:00 3 0 Calma 5 Noroeste 0 -- -- 98
2018-05-16 08:00:00 2.8 0 Calma 4 Sur 0 -- -- 98
2018-05-16 07:00:00 2.3 3 Sudoeste 5 Sudoeste 0 -- -- 96
2018-05-16 06:00:00 2.6 0 Calma 5 Oeste 0 -- -- 97
2018-05-16 05:00:00 2.6 0 Calma 3 Noroeste 0 -- -- 98
2018-05-16 04:00:00 2.6 2 Sur 4 Sudeste 0 -- -- 97
2018-05-16 03:00:00 3.1 0 Calma 4 Oeste 0 -- -- 97
2018-05-16 02:00:00 3.6 0 Calma 5 Oeste 0 -- -- 96
2018-05-16 01:00:00 4.1 0 Calma 5 Sudoeste 0 -- -- 94
2018-05-16 00:00:00 4.9 0 Calma 5 Sudoeste 0 -- -- 92
2018-05-15 23:00:00 5.8 0 Calma 5 Sudoeste 0 -- -- 88
2018-05-15 22:00:00 7.1 2 Sur 4 Sudoeste 0 -- -- 84
2018-05-15 21:00:00 9.1 2 Sur 6 Sudoeste 0 -- -- 78
2018-05-15 20:00:00 11.2 3 Sudoeste 10 Oeste 0 -- -- 69
2018-05-15 19:00:00 13.9 4 Sudoeste 14 Sudeste 0 -- -- 60
2018-05-15 18:00:00 15.5 6 Sudoeste 17 Sur 0 -- -- 54
2018-05-15 17:00:00 16 6 Sudoeste 16 Sur 0 -- -- 53
2018-05-15 16:00:00 16 5 Sur 17 Sudoeste 0 -- -- 53
2018-05-15 15:00:00 15.4 5 Sudoeste 16 Sudoeste 0 -- -- 47
2018-05-15 14:00:00 13.9 5 Nordeste 13 Oeste 0 -- -- 45
2018-05-15 13:00:00 14.5 4 Sudeste 13 Sur 0 -- -- 40
2018-05-15 12:00:00 12.8 5 Sur 14 Sudoeste 0 -- -- 47
2018-05-15 11:00:00 10.6 3 Nordeste 9 Este 0 -- -- 39
2018-05-15 10:00:00 5.7 3 Nordeste 7 Nordeste 0 -- -- 67
2018-05-15 09:00:00 0.9 0 Calma 4 Noroeste 0 -- -- 83
2018-05-15 08:00:00 0.1 0 Calma 4 Sudoeste 0 -- -- 87
2018-05-15 07:00:00 0 0 Calma 5 Oeste 0 -- -- 91
2018-05-15 06:00:00 0.3 0 Calma 4 Noroeste 0 -- -- 91
2018-05-15 05:00:00 0.6 0 Calma 4 Noroeste 0 -- -- 90
2018-05-15 04:00:00 1.1 3 Sur 6 Sudoeste 0 -- -- 94
2018-05-15 03:00:00 1.7 0 Calma 5 Oeste 0 -- -- 96
2018-05-15 02:00:00 2.1 3 Oeste 6 Oeste 0 -- -- 96
2018-05-15 01:00:00 2.9 0 Calma 4 Oeste 0 -- -- 95
2018-05-15 00:00:00 3.5 2 Oeste 5 Sur 0 -- -- 95
2018-05-14 23:00:00 4.1 0 Calma 6 Sudoeste 0 -- -- 91
2018-05-14 22:00:00 5.2 3 Sudoeste 5 Sudoeste 0 -- -- 84
2018-05-14 21:00:00 6.9 3 Sudoeste 7 Sudoeste 0 -- -- 79
2018-05-14 20:00:00 8.2 2 Sudoeste 9 Oeste 0 -- -- 74
2018-05-14 19:00:00 11.4 4 Norte 14 Nordeste 0 -- -- 53
2018-05-14 18:00:00 13.3 4 Noroeste 13 Sudoeste 0 -- -- 49
2018-05-14 17:00:00 13.4 5 Este 17 Sur 0 -- -- 53
2018-05-14 16:00:00 12.6 6 Oeste 19 Este 0 -- -- 50
2018-05-14 15:00:00 11.9 8 Nordeste 23 Este 0 -- -- 51
2018-05-14 14:00:00 11.2 7 Este 16 Este 0 -- -- 64
2018-05-14 13:00:00 10.4 5 Este 16 Nordeste 0 -- -- 76
2018-05-14 12:00:00 8 3 Sudeste 8 Sur 0 -- -- 89
2018-05-14 11:00:00 6.2 2 Sudoeste 9 Sudeste 0.2 -- -- 99
2018-05-14 10:00:00 4.4 3 Sudeste 9 Sudoeste 0.6 -- -- 100
2018-05-14 09:00:00 3.4 0 Calma 5 Noroeste 1.2 -- -- 100
2018-05-14 08:00:00 1.9 0 Calma 5 Noroeste 1.6 -- -- 100
2018-05-14 07:00:00 1.1 2 Norte 5 Noroeste 2 -- -- 100
2018-05-14 06:00:00 1 0 Calma 5 Noroeste 3.6 -- -- 98
2018-05-14 05:00:00 2.3 0 Calma 4 Oeste 4 -- -- 98
2018-05-14 04:00:00 2.8 0 Calma 3 Oeste 1.8 -- -- 99
2018-05-14 03:00:00 3 0 Calma 2 Sudoeste 2.4 -- -- 98
2018-05-14 02:00:00 3.2 0 Calma 3 Sudoeste 1.2 -- -- 98
2018-05-14 01:00:00 3.4 0 Calma 5 Sudoeste 1.2 -- -- 98
2018-05-11 20:00:00 11.2 5 Sudoeste 12 Oeste 0 -- -- 83
2018-05-11 19:00:00 12.9 4 Oeste 20 Sudoeste 0 -- -- 78
2018-05-11 18:00:00 16.9 6 Nordeste 27 Sudeste 0 -- -- 40
2018-05-11 17:00:00 16.7 6 Este 31 Este 0 -- -- 38
2018-05-11 16:00:00 16.9 8 Sudeste -- -- -- -- -- 42
2018-05-11 15:00:00 -- 6 Nordeste 26 Nordeste 0 -- -- --
2018-05-11 14:00:00 18.5 6 Este 24 Noroeste 0 -- -- 41
2018-05-11 13:00:00 16.9 7 Sur 24 Sudoeste 0 -- -- 47
2018-05-11 12:00:00 16.6 10 Sur 29 Sur 0 -- -- 38
2018-05-11 11:00:00 14.4 9 Sur 25 Sur 0 -- -- 48
2018-05-11 10:00:00 14.6 10 Sur 27 Sudoeste 0 -- -- 47
2018-05-11 09:00:00 12.4 8 Sudoeste 18 Sudoeste 0 -- -- 56
2018-05-11 08:00:00 9.2 4 Oeste 17 Sudoeste 0 -- -- 74
2018-05-11 07:00:00 7.3 2 Oeste 8 Sudoeste 0 -- -- 73
2018-05-11 06:00:00 8.3 4 Noroeste 23 Sudoeste 0 -- -- 71
2018-05-11 05:00:00 7.1 5 Noroeste 10 Noroeste 0 -- -- 76
2018-05-11 04:00:00 7.2 2 Sudoeste 8 Oeste 0 -- -- 76
2018-05-11 03:00:00 7 0 Calma 5 Oeste 0 -- -- 81
2018-05-11 02:00:00 6.7 0 Calma 5 Sudoeste 0 -- -- 84
2018-05-11 01:00:00 6.6 0 Calma 4 Sudoeste 0 -- -- 89
2018-05-11 00:00:00 6.3 2 Sudeste 5 Oeste 0 -- -- 94
2018-05-10 23:00:00 6.4 0 Calma 5 Sudoeste 0 -- -- 93
2018-05-10 22:00:00 7.1 2 Sudoeste 4 Sudoeste 0 -- -- 89
2018-05-10 21:00:00 8.5 2 Sudoeste 5 Sudoeste 0 -- -- 84
2018-05-10 20:00:00 10.4 2 Oeste 11 Sudoeste 0 -- -- 77
2018-05-10 19:00:00 12.7 4 Oeste 10 Este 0 -- -- 65
2018-05-10 18:00:00 13.8 4 Sur 12 Sudoeste 0 -- -- 62
2018-05-10 17:00:00 13.8 4 Sudeste 20 Sudoeste 0 -- -- 60
2018-05-10 16:00:00 13.4 5 Sudeste 15 Sudoeste 0 -- -- 61
2018-05-10 15:00:00 12.7 5 Sudoeste 15 Sudoeste 0 -- -- 64
2018-05-10 14:00:00 10.2 4 Noroeste 9 Nordeste 0 -- -- 71
2018-05-10 13:00:00 8.1 4 Sur 11 Sudoeste 0 -- -- 77
2018-05-10 12:00:00 7.6 5 Sudoeste 12 Sudoeste 0 -- -- 86
2018-05-10 11:00:00 7.4 4 Sudoeste 16 Sudoeste 0 -- -- 89
2018-05-10 10:00:00 7.1 4 Sudoeste 10 Sudoeste 0 -- -- 90
2018-05-10 09:00:00 6.4 0 Calma 4 Nordeste 0 -- -- 90
2018-05-10 08:00:00 5.5 0 Calma 3 Sudoeste 0 -- -- 94
2018-05-10 07:00:00 4.7 0 Calma 4 Noroeste 0 -- -- 95
2018-05-10 06:00:00 4.6 0 Calma 4 Oeste 0 -- -- 93
2018-05-10 05:00:00 4.8 2 Oeste 4 Oeste 0 -- -- 92
2018-05-10 04:00:00 4.6 2 Oeste 6 Sudoeste 0 -- -- 92
2018-05-10 03:00:00 4.4 2 Oeste 7 Sudoeste 0 -- -- 92
2018-05-10 02:00:00 5.6 2 Sur 5 Noroeste 0 -- -- 95
2018-05-10 01:00:00 6.9 2 Oeste 12 Sur 0 -- -- 96
2018-05-10 00:00:00 7.4 3 Sur 7 Sudoeste 0 -- -- 98
2018-05-09 23:00:00 8 0 Calma 7 Sur 0 -- -- 97
2018-05-09 22:00:00 8.3 2 Sur 8 Sur 0 -- -- 98
2018-05-09 21:00:00 8.9 4 Sudoeste 9 Sur 0 -- -- 98
2018-05-09 20:00:00 9.6 3 Sudoeste 10 Sudoeste 0 -- -- 97
2018-05-09 19:00:00 9.9 5 Sudoeste 12 Oeste 0 -- -- 95
2018-05-09 18:00:00 11.3 7 Sudoeste 18 Sur 0 -- -- 90
2018-05-09 17:00:00 14.4 4 Sudoeste 15 Sudeste 0 -- -- 73
2018-05-09 16:00:00 17 6 Sudoeste 18 Sudoeste 0 -- -- 67
2018-05-09 15:00:00 18.1 5 Este 20 Este 0 -- -- 60
2018-05-09 14:00:00 17.8 5 Sudeste 14 Sudoeste 0 -- -- 59
2018-05-09 13:00:00 16 6 Sudoeste 15 Sudeste 0 -- -- 64
2018-05-09 12:00:00 15.3 5 Sudeste 12 Sudoeste 0 -- -- 66
2018-05-09 11:00:00 12.3 3 Sudoeste 10 Sur 0 -- -- 76
2018-05-09 10:00:00 9.3 0 Calma 5 Nordeste 0 -- -- 86
2018-05-09 09:00:00 6.6 0 Calma 3 Sudoeste 0 -- -- 97
2018-05-09 08:00:00 5.3 0 Calma 4 Oeste 0 -- -- 98
2018-05-09 07:00:00 5 0 Calma 4 Oeste 0 -- -- 98
2018-05-09 06:00:00 5.4 0 Calma 3 Sudoeste 0 -- -- 96
2018-05-09 05:00:00 6.3 0 Calma 5 Sur 0 -- -- 95
2018-05-09 04:00:00 7.7 0 Calma 5 Sudoeste 0 -- -- 96
2018-05-09 03:00:00 7.9 3 Sur 7 Sur 0 -- -- 97
2018-05-09 02:00:00 8.3 0 Calma 5 Sudeste 0 -- -- 97
2018-05-09 01:00:00 8.6 3 Sudeste 5 Este 0 -- -- 96
2018-05-09 00:00:00 9 0 Calma 6 Sur 0 -- -- 97
2018-05-08 23:00:00 10 2 Sudeste 5 Sur 0 -- -- 96
2018-05-08 22:00:00 10.1 0 Calma 6 Sudoeste 0 -- -- 95
2018-05-08 21:00:00 11.2 0 Calma 6 Sudoeste 0 -- -- 89
2018-05-08 20:00:00 12 2 Sudoeste 9 Sur 0 -- -- 86
2018-05-08 19:00:00 12.8 3 Sudoeste 9 Sudoeste 0 -- -- 81
2018-05-08 18:00:00 13.8 5 Sur 13 Oeste 0 -- -- 82
2018-05-08 17:00:00 13.8 6 Sudoeste 19 Sur 0 -- -- 81
2018-05-08 16:00:00 15.2 6 Sudoeste 18 Sur 0 -- -- 78
2018-05-08 15:00:00 16.1 7 Sur 16 Sudoeste 0 -- -- 75
2018-05-08 14:00:00 17.3 5 Sur 18 Sudoeste 0 -- -- 68
2018-05-08 13:00:00 17.4 5 Este 17 Sur 0 -- -- 69
2018-05-08 12:00:00 14.6 5 Este 10 Nordeste 0 -- -- 72
2018-05-08 11:00:00 12.8 3 Sur 9 Sur 0 -- -- 80
2018-05-08 10:00:00 10.9 4 Este 8 Este 0 -- -- 88
2018-05-08 09:00:00 7.8 0 Calma -- -- 0 -- -- 93
2018-05-08 08:00:00 7.4 0 Calma -- -- 0 -- -- 93
2018-05-08 07:00:00 7.8 0 Calma -- -- 0 -- -- 91
2018-05-08 06:00:00 8.3 0 Calma 4 Sudoeste 0 -- -- 88
2018-05-08 05:00:00 8.8 0 Calma 3 Oeste 0 -- -- 86
2018-05-08 04:00:00 9.4 0 Calma 3 Noroeste 0 -- -- 85
2018-05-08 03:00:00 9.9 0 Calma 2 Oeste 0 -- -- 84
2018-05-08 02:00:00 10.2 0 Calma 4 Oeste 0 -- -- 84
2018-05-08 01:00:00 10.9 0 Calma 4 Sudoeste 0 -- -- 84
2018-05-08 00:00:00 11.3 0 Calma 4 Oeste 0 -- -- 83
2018-05-07 23:00:00 12.1 0 Calma 3 Sudoeste 0 -- -- 82
2018-05-07 22:00:00 13.2 0 Calma 5 Oeste 0 -- -- 78
2018-05-07 21:00:00 14.9 0 Calma 9 Oeste 0 -- -- 71
2018-05-07 20:00:00 17.3 2 Norte 12 Noroeste 0 -- -- 54
2018-05-07 19:00:00 19.4 6 Norte 12 Noroeste 0 -- -- 49
2018-05-07 18:00:00 20 7 Norte 21 Noroeste 0 -- -- 49
2018-05-07 17:00:00 20.7 5 Norte 19 Noroeste 0 -- -- 52
2018-05-07 16:00:00 19.7 8 Noroeste 18 Noroeste 0 -- -- 56
2018-05-07 15:00:00 19.6 4 Norte 18 Noroeste 0 -- -- 51
2018-05-07 14:00:00 19.1 6 Norte 14 Noroeste 0 -- -- 54
2018-05-07 13:00:00 19.5 3 Norte 8 Noroeste 0 -- -- 52
2018-05-07 12:00:00 19.9 3 Nordeste 9 Noroeste 0 -- -- 59
2018-05-07 11:00:00 19 3 Este 11 Este 0 -- -- 61
2018-05-07 10:00:00 14 0 Calma 0 Calma 0 -- -- 79
2018-05-07 09:00:00 11 0 Calma -- -- 0 -- -- 85
2018-05-07 08:00:00 10.3 0 Calma 4 Noroeste 0 -- -- 86
2018-05-07 07:00:00 10.5 0 Calma 4 Sudoeste 0 -- -- 86
2018-05-07 06:00:00 10.6 0 Calma 0 Calma 0 -- -- 88
2018-05-07 05:00:00 10.9 0 Calma 0 Calma 0 -- -- 89
2018-05-07 04:00:00 10.7 0 Calma 0 Calma 0 -- -- 89
2018-05-07 03:00:00 10.7 0 Calma 5 Sudoeste 0 -- -- 91
2018-05-07 02:00:00 11.1 0 Calma 0 Calma 0 -- -- 90
2018-05-07 01:00:00 11.3 0 Calma 0 Calma 0 -- -- 90
2018-05-07 00:00:00 12.1 0 Calma 3 Sudoeste 0 -- -- 87
2018-05-06 23:00:00 13 0 Calma 4 Oeste 0 -- -- 84
2018-05-06 22:00:00 14.3 0 Calma 7 Sur 0 -- -- 80
2018-05-06 21:00:00 15.8 3 Oeste 9 Sudoeste 0 -- -- 73
2018-05-06 20:00:00 17.5 2 Oeste 10 Sudoeste 0 -- -- 66
2018-05-06 19:00:00 18.7 3 Sudoeste 12 Sur 0 -- -- 60
2018-05-06 18:00:00 20.3 7 Sudoeste 16 Sudoeste 0 -- -- 55
2018-05-06 17:00:00 21.4 7 Sudoeste 14 Sur 0 -- -- 50
2018-05-06 16:00:00 20.3 5 Sudoeste 16 Sudoeste 0 -- -- 49
2018-05-06 15:00:00 20.6 5 Sur 15 Nordeste 0 -- -- 50
2018-05-06 14:00:00 20.2 6 Sur 15 Sur 0 -- -- 48
2018-05-06 13:00:00 19.5 5 Sudoeste 14 Sudoeste 0 -- -- 52
2018-05-06 12:00:00 18 4 Este 14 Sudoeste 0 -- -- 56
2018-05-06 11:00:00 16.3 3 Sudoeste 10 Sudoeste 0 -- -- 63
2018-05-06 10:00:00 11.6 0 Calma 3 Nordeste 0 -- -- 87
2018-05-06 09:00:00 8.5 0 Calma 3 Noroeste 0 -- -- 93
2018-05-06 08:00:00 7.9 0 Calma 3 Oeste 0 -- -- 94
2018-05-06 07:00:00 7.9 0 Calma 4 Sudoeste 0 -- -- 91
2018-05-06 06:00:00 8.4 0 Calma 4 Sudoeste 0 -- -- 89
2018-05-06 05:00:00 9.1 3 Sur 6 Sur 0 -- -- 87
2018-05-06 04:00:00 9.2 0 Calma 5 Oeste 0 -- -- 88
2018-05-06 03:00:00 9.5 3 Sudoeste 5 Noroeste 0 -- -- 87
2018-05-06 02:00:00 9 2 Sur 8 Sudoeste 0 -- -- 91
2018-05-06 01:00:00 8.3 0 Calma 4 Sudoeste 0 -- -- 91
2018-05-06 00:00:00 8.9 0 Calma 6 Oeste 0 -- -- 88
2018-05-05 23:00:00 9.9 0 Calma 4 Sudoeste 0 -- -- 84
2018-05-05 22:00:00 11.8 0 Calma 6 Sur 0 -- -- 76
2018-05-05 21:00:00 13.1 2 Sudoeste 12 Sur 0 -- -- 71
2018-05-05 20:00:00 14.6 5 Sur 14 Sur 0 -- -- 64
2018-05-05 19:00:00 15.6 6 Sudoeste 19 Sudoeste 0 -- -- 56
2018-05-05 18:00:00 17.7 6 Sur 21 Sur 0 -- -- 51
2018-05-05 17:00:00 17.1 6 Sudeste 20 Sudoeste 0 -- -- 49
2018-05-05 16:00:00 17.7 7 Sudoeste 23 Sudoeste 0 -- -- 48
2018-05-05 15:00:00 17.5 8 Sur 20 Sur 0 -- -- 50
2018-05-05 14:00:00 16.5 7 Sur 17 Sudoeste 0 -- -- 51
2018-05-05 13:00:00 15.8 6 Norte 18 Sur 0 -- -- 52
2018-05-05 12:00:00 14.6 5 Sur 13 Sur 0 -- -- 50
2018-05-05 11:00:00 12.4 4 Sur 10 Este 0 -- -- 53
2018-05-05 10:00:00 7.6 0 Calma 5 Este 0 -- -- 68
2018-05-05 09:00:00 3.7 0 Calma 4 Oeste 0 -- -- 74
2018-05-05 08:00:00 2.6 0 Calma 4 Noroeste 0 -- -- 66
2018-05-05 07:00:00 2.5 0 Calma 3 Noroeste 0 -- -- 61
2018-05-05 06:00:00 2.1 0 Calma 4 Sudoeste 0 -- -- 69
2018-05-05 05:00:00 2.1 0 Calma 4 Oeste 0 -- -- 54
2018-05-05 04:00:00 2.5 0 Calma 4 Noroeste 0 -- -- 66
2018-05-05 03:00:00 3 0 Calma 4 Sudoeste 0 -- -- 54
2018-05-05 02:00:00 2.8 0 Calma 4 Sudoeste 0 -- -- 61
2018-05-05 01:00:00 2.9 0 Calma 5 Noroeste 0 -- -- 79
2018-05-05 00:00:00 3.3 0 Calma 4 Sudoeste 0 -- -- 86
2018-05-04 23:00:00 4 0 Calma 5 Oeste 0 -- -- 85
2018-05-04 22:00:00 5.1 2 Sudoeste 7 Sudoeste 0 -- -- 80
2018-05-04 21:00:00 6.9 2 Sudoeste 7 Sudoeste 0 -- -- 74
2018-05-04 20:00:00 8.1 3 Oeste 10 Oeste 0 -- -- 68
2018-05-04 19:00:00 10.2 4 Sudoeste 17 Sur 0 -- -- 57
2018-05-04 18:00:00 12 5 Oeste 16 Sur 0 -- -- 56
2018-05-04 17:00:00 11.9 5 Sur 20 Sudoeste 0 -- -- 51
2018-05-04 16:00:00 11.7 6 Sur 22 Nordeste 0 -- -- 57
2018-05-04 15:00:00 11.2 6 Sur 21 Sudoeste 0 -- -- 53
2018-05-04 14:00:00 10.9 8 Sudeste 19 Sur 0 -- -- 55
2018-05-04 13:00:00 9.9 8 Sudoeste 22 Sudeste 0 -- -- 59
2018-05-04 12:00:00 8.8 5 Oeste 15 Sudoeste 0 -- -- 66
2018-05-04 11:00:00 6.3 5 Sur 18 Sudoeste 0 -- -- 71
2018-05-04 10:00:00 4.2 4 Este 8 Norte 0 -- -- 75
2018-05-04 09:00:00 0.9 0 Calma 6 Oeste 0 -- -- 93
2018-05-04 08:00:00 0.4 2 Sudeste 6 Noroeste 0 -- -- 95
2018-05-04 07:00:00 0.6 0 Calma 6 Oeste 0 -- -- 95
2018-05-04 06:00:00 1.1 0 Calma 4 Este 0 -- -- 96
2018-05-04 05:00:00 0.9 0 Calma 4 Sudoeste 0 -- -- 95
2018-05-04 04:00:00 1.1 0 Calma 4 Oeste 0 -- -- 94
2018-05-04 03:00:00 2.1 0 Calma 5 Oeste 0 -- -- 94
2018-05-04 02:00:00 2.3 3 Sudoeste 7 Sur 0 -- -- 94
2018-05-04 01:00:00 2.4 2 Sudoeste 5 Sudoeste 0 -- -- 91
2018-05-04 00:00:00 3 2 Sudoeste 7 Sudoeste 0 -- -- 89
2018-05-03 23:00:00 3.4 2 Sudoeste 10 Sudoeste 0 -- -- 90
2018-05-03 22:00:00 3.9 5 Sudoeste 12 Sudoeste 0 -- -- 87
2018-05-03 21:00:00 4.9 3 Sudeste 18 Este 0 -- -- 81
2018-05-03 20:00:00 6.3 5 Oeste 14 Sudoeste 0 -- -- 70
2018-05-03 19:00:00 7.4 3 Este 21 Este 0 -- -- 59
2018-05-03 18:00:00 7.7 9 Este 28 Este 0 -- -- 55
2018-05-03 17:00:00 8.8 9 Nordeste 33 Este 0 -- -- 54
2018-05-03 16:00:00 8.5 13 Este 32 Este 0 -- -- 57
2018-05-03 15:00:00 8.5 10 Este 32 Este 0 -- -- 59
2018-05-03 14:00:00 8.1 10 Este 22 Este 0 -- -- 63
2018-05-03 13:00:00 8.5 8 Este 26 Este 0 -- -- 58
2018-05-03 12:00:00 6.6 13 Este 31 Este 0 -- -- 65
2018-05-03 11:00:00 6.1 10 Este 33 Este 0 -- -- 65
2018-05-03 10:00:00 4.8 4 Este 24 Este 0 -- -- 74
2018-05-03 09:00:00 3.8 7 Nordeste 26 Este 0 -- -- 79
2018-05-03 08:00:00 3.4 3 Sudeste 8 Sur 0 -- -- 99
2018-05-03 07:00:00 3.5 0 Calma 12 Este 0 -- -- 96
2018-05-03 06:00:00 4.5 3 Noroeste 13 Este 0 -- -- 89
2018-05-03 05:00:00 5.1 0 Calma 18 Este 0.2 -- -- 96
2018-05-03 04:00:00 5.6 2 Sur 17 Este 0.4 -- -- 97
2018-05-03 03:00:00 6 2 Sur 16 Este 0.2 -- -- 97
2018-05-03 02:00:00 6.7 2 Sudeste 6 Sur 0.8 -- -- 99
2018-05-03 01:00:00 7 0 Calma 18 Este 0.6 -- -- 99
2018-05-03 00:00:00 7.3 3 Sudoeste 6 Oeste 1.4 -- -- 99
2018-05-02 23:00:00 7.5 0 Calma 6 Oeste 1.6 -- -- 99
2018-05-02 22:00:00 7.7 0 Calma 5 Noroeste 1.4 -- -- 98
2018-05-02 21:00:00 8.2 0 Calma 8 Noroeste 1 -- -- 96
2018-05-02 20:00:00 8.9 4 Noroeste 11 Noroeste 0.8 -- -- 93
2018-05-02 19:00:00 9.3 4 Norte 12 Oeste 0.4 -- -- 87
2018-05-02 18:00:00 9.5 2 Norte 10 Oeste 0.6 -- -- 87
2018-05-02 17:00:00 9.6 4 Sur 17 Sur 0.8 -- -- 85
2018-05-02 16:00:00 10.1 3 Sudoeste 14 Sudoeste 1 -- -- 85
2018-05-02 15:00:00 10 0 Calma 9 Sudoeste 1 -- -- 80
2018-05-02 14:00:00 10.2 2 Noroeste 9 Noroeste 0.8 -- -- 76
2018-05-02 13:00:00 10 3 Noroeste 7 Noroeste 0 -- -- 75
2018-05-02 12:00:00 8.5 0 Calma 4 Norte 0.4 -- -- 82
2018-05-02 11:00:00 7.6 0 Calma 7 Noroeste 0.2 -- -- 82
2018-05-02 10:00:00 5.2 0 Calma 4 Este 0.2 -- -- 86
2018-05-02 09:00:00 3.7 0 Calma 14 Sudoeste 0.6 -- -- 93
2018-05-02 08:00:00 4 8 Oeste 27 Sudoeste 0.2 -- -- 78
2018-05-02 07:00:00 3.7 7 Sudoeste 22 Sur 0.2 -- -- 80
2018-05-02 06:00:00 4 8 Sur 20 Sur 0.2 -- -- 75
2018-05-02 05:00:00 4.6 8 Sur 21 Sur 0.2 -- -- 73
2018-05-02 04:00:00 6.2 7 Sur 19 Sur 0 -- -- 65
2018-05-02 03:00:00 4.5 2 Oeste 6 Nordeste 0 -- -- 93
2018-05-02 02:00:00 4.5 0 Calma 2 Oeste 0 -- -- 95
2018-05-02 01:00:00 4.4 0 Calma 4 Sudoeste 0 -- -- 94
2018-05-02 00:00:00 4.7 2 Sudeste 4 Sur 0 -- -- 93
2018-05-01 23:00:00 5.2 0 Calma 4 Sudoeste 0 -- -- 90
2018-05-01 22:00:00 5.6 0 Calma 10 Sudoeste 0 -- -- 87
2018-05-01 21:00:00 6.2 4 Sudoeste 10 Sur 0 -- -- 84
2018-05-01 20:00:00 7.4 5 Sudoeste 14 Sur 0 -- -- 78
2018-05-01 19:00:00 9.2 3 Sudoeste 18 Sudoeste 0 -- -- 67
2018-05-01 18:00:00 10.5 4 Sudeste 19 Sur 0 -- -- 56
2018-05-01 17:00:00 11.7 6 Sudeste 26 Norte 0 -- -- 48
2018-05-01 16:00:00 11.8 4 Norte 22 Norte 0 -- -- 35
2018-05-01 15:00:00 10.6 6 Oeste 17 Sur 0 -- -- 29
2018-05-01 14:00:00 10.6 8 Oeste 17 Oeste 0 -- -- 38
2018-05-01 13:00:00 9.6 4 Norte 14 Este 0 -- -- 47
2018-05-01 12:00:00 7.7 2 Norte 11 Este 0 -- -- 55
2018-05-01 11:00:00 4.9 4 Nordeste 12 Este 0.2 -- -- 60
2018-05-01 10:00:00 0.9 0 Calma 3 Nordeste 0 -- -- 93
2018-05-01 09:00:00 -1.5 0 Calma 3 Sudoeste 0 -- -- 99
2018-05-01 08:00:00 -1.7 0 Calma 5 Sudoeste 0 -- -- 99
2018-05-01 07:00:00 -1.6 0 Calma 5 Oeste 0 -- -- 99
2018-05-01 06:00:00 -1.3 2 Oeste 4 Oeste 0 -- -- 99
2018-05-01 05:00:00 -0.9 0 Calma 6 Oeste 0 -- -- 99
2018-05-01 04:00:00 -0.6 0 Calma 4 Oeste 0 -- -- 99
2018-05-01 03:00:00 -0.2 2 Sudoeste 5 Oeste 0 -- -- 99
2018-05-01 02:00:00 0.5 0 Calma 5 Sudoeste 0.2 -- -- 99
2018-05-01 01:00:00 0.8 0 Calma 3 Oeste 0 -- -- 100
2018-05-01 00:00:00 0.7 0 Calma 4 Sudoeste 0 -- -- 100
2018-04-30 23:00:00 0.5 2 Oeste 5 Oeste 0 -- -- 98
2018-04-30 22:00:00 1.2 0 Calma 4 Oeste 0.6 -- -- 97
2018-04-30 21:00:00 2.1 0 Calma 5 Noroeste 1 -- -- 92
2018-04-30 20:00:00 2.9 0 Calma 17 Este 0.2 -- -- 91
2018-04-30 19:00:00 3.3 2 Norte 9 Noroeste 0.6 -- -- 90
2018-04-30 18:00:00 4.1 3 Oeste 14 Oeste 0.4 -- -- 81
2018-04-30 17:00:00 5.4 3 Nordeste 15 Este 0 -- -- 68
2018-04-30 16:00:00 4.7 6 Noroeste 12 Sudoeste 0 -- -- 78
2018-04-30 15:00:00 4.8 2 Noroeste 14 Oeste 0 -- -- 81
2018-04-30 14:00:00 5.5 4 Oeste 8 Norte 0.6 -- -- 82
2018-04-30 13:00:00 2.3 3 Noroeste 6 Noroeste 1.4 -- -- 94
2018-04-30 12:00:00 2.6 2 Noroeste 5 Noroeste 0.8 -- -- 90
2018-04-30 11:00:00 2.6 2 Noroeste 5 Norte 0.2 -- -- 93
2018-04-30 10:00:00 2 3 Noroeste 5 Noroeste 0.6 -- -- 96
2018-04-30 09:00:00 1.5 2 Sudoeste 5 Noroeste 0.2 -- -- 97
2018-04-30 08:00:00 1.5 0 Calma 3 Noroeste 0 -- -- 100
2018-04-30 07:00:00 1.3 0 Calma 4 Sudoeste 0 -- -- 100
2018-04-30 06:00:00 1.3 3 Sur 5 Sur 0 -- -- 99
2018-04-30 05:00:00 1.4 2 Sur 4 Sudoeste 0 -- -- 98
2018-04-30 04:00:00 1.6 0 Calma 4 Sudoeste 0 -- -- 98
2018-04-30 03:00:00 1.6 2 Noroeste 6 Noroeste 0.2 -- -- 97
2018-04-30 02:00:00 1.8 0 Calma 7 Oeste 0.4 -- -- 98
2018-04-30 01:00:00 2.1 0 Calma 3 Oeste 0 -- -- 99
2018-04-30 00:00:00 2.1 0 Calma 5 Sudoeste 0.2 -- -- 98
2018-04-29 23:00:00 2.5 0 Calma 5 Sudeste 0.2 -- -- 98
2018-04-29 22:00:00 2.8 3 Oeste 8 Noroeste 0.4 -- -- 95
2018-04-29 21:00:00 3.3 3 Sur 11 Sudoeste 0.6 -- -- 95
2018-04-29 20:00:00 4.3 3 Oeste 16 Sudoeste 1 -- -- 91
2018-04-29 19:00:00 5.6 5 Noroeste 8 Noroeste 0 -- -- 86
2018-04-29 18:00:00 4.6 4 Noroeste 24 Sudoeste 1.6 -- -- 90
2018-04-29 17:00:00 6.9 6 Sur 18 Sudeste 0.2 -- -- 72
2018-04-29 16:00:00 4.5 6 Sur 23 Sudoeste 1 -- -- 86
2018-04-29 15:00:00 7.7 9 Sudoeste 20 Sudoeste 0 -- -- 63
2018-04-29 14:00:00 9.4 8 Noroeste 19 Oeste 0 -- -- 50
2018-04-29 13:00:00 8.7 7 Sudoeste 20 Sur 0 -- -- 58
2018-04-29 12:00:00 8.5 8 Sur 23 Oeste 0.2 -- -- 60
2018-04-29 11:00:00 6.6 3 Este 10 Este 0 -- -- 82
2018-04-29 10:00:00 4.2 2 Este 5 Sudoeste 0 -- -- 94
2018-04-29 09:00:00 3 0 Calma 5 Este 0 -- -- 99
2018-04-29 08:00:00 2.5 0 Calma 5 Noroeste 0 -- -- 100
2018-04-29 07:00:00 2.1 0 Calma 4 Sudoeste 0 -- -- 100
2018-04-29 06:00:00 2.8 0 Calma 3 Sur 0 -- -- 100
2018-04-29 05:00:00 2.7 0 Calma 4 Sudoeste 0 -- -- 100
2018-04-29 04:00:00 2.8 0 Calma 2 Sudoeste 0 -- -- 100
2018-04-29 03:00:00 3 0 Calma 3 Sudoeste 0 -- -- 100
2018-04-29 02:00:00 3.1 0 Calma 5 Sur 0 -- -- 100
2018-04-29 01:00:00 3.1 0 Calma 5 Sur 0 -- -- 100
2018-04-29 00:00:00 3.1 0 Calma -- -- 0 -- -- 99
2018-04-28 23:00:00 3.2 0 Calma -- -- 0 -- -- 99
2018-04-28 22:00:00 3.1 0 Calma -- -- 0 -- -- 99
2018-04-28 21:00:00 3.2 0 Calma 4 Sudoeste 0.6 -- -- 98
2018-04-28 20:00:00 3.4 0 Calma 8 Noroeste 1.6 -- -- 97
2018-04-28 19:00:00 4 0 Calma 4 Oeste 2.2 -- -- 95
2018-04-28 18:00:00 4.3 2 Sudeste 5 Este 1.2 -- -- 97
2018-04-28 17:00:00 4.1 2 Sur 4 Este 2.4 -- -- 96
2018-04-28 16:00:00 4.3 0 Calma 4 Noroeste 3.6 -- -- 94
2018-04-28 15:00:00 5 3 Sudoeste 8 Sur 1.6 -- -- 96
2018-04-28 14:00:00 5.6 2 Sudeste 5 Sur 0 -- -- 90
2018-04-28 13:00:00 5.4 0 Calma 8 Sudoeste 0 -- -- 93
2018-04-28 12:00:00 4.1 4 Sudoeste 8 Sudoeste 0 -- -- 98
2018-04-28 11:00:00 3.8 3 Sur 5 Sur 0 -- -- 99
2018-04-28 10:00:00 3.6 2 Sudeste 4 Este 0 -- -- 100
2018-04-28 09:00:00 3.1 0 Calma 3 Sudoeste 0.2 -- -- 100
2018-04-28 08:00:00 3 0 Calma 3 Sudoeste 0 -- -- 100
2018-04-28 07:00:00 2.9 0 Calma 3 Sur 0 -- -- 100
2018-04-28 06:00:00 2.9 0 Calma 4 Sur 0 -- -- 100
2018-04-28 05:00:00 2.9 2 Sur 5 Sudoeste 0.2 -- -- 100
2018-04-28 04:00:00 3 0 Calma 5 Sudoeste 0 -- -- 100
2018-04-28 03:00:00 3.2 0 Calma 5 Sur 0.2 -- -- 100
2018-04-28 02:00:00 3.3 2 Sudoeste 9 Sudoeste 0 -- -- 100
2018-04-28 01:00:00 3.5 4 Sudoeste 8 Sudoeste 0.2 -- -- 100
2018-04-28 00:00:00 3.7 3 Sudoeste 8 Sur 0.2 -- -- 100
2018-04-27 23:00:00 3.8 2 Sudoeste 10 Sudoeste 0.6 -- -- 100
2018-04-27 22:00:00 4 4 Sur 9 Sur 0.8 -- -- 99
2018-04-27 21:00:00 4.8 3 Sur 10 Sur 0.6 -- -- 99
2018-04-27 20:00:00 5.3 4 Sudoeste 10 Sudoeste 0.6 -- -- 99
2018-04-27 19:00:00 5.9 5 Sudoeste 12 Sudoeste 0.2 -- -- 98
2018-04-27 18:00:00 6.4 5 Sudoeste 13 Sudoeste 0.2 -- -- 97
2018-04-27 17:00:00 7.1 5 Sudoeste 12 Sudoeste 0 -- -- 93
2018-04-27 16:00:00 8.3 3 Sur 12 Sudoeste 0 -- -- 86
2018-04-27 15:00:00 9.9 7 Sudoeste 21 Sudoeste 0 -- -- 79
2018-04-27 14:00:00 12.6 9 Sudoeste 20 Sudoeste 0 -- -- 69
2018-04-27 13:00:00 14.4 6 Sudeste 18 Este 0 -- -- 62
2018-04-27 12:00:00 13.8 4 Este 14 Sudeste 0 -- -- 60
2018-04-27 11:00:00 11.9 4 Sudeste 10 Nordeste 0 -- -- 64
2018-04-27 10:00:00 8.3 3 Este 7 Nordeste 0 -- -- 79
2018-04-27 09:00:00 6 0 Calma 4 Oeste 0 -- -- 85
2018-04-27 08:00:00 6.3 0 Calma 5 Oeste 0 -- -- 79
2018-04-27 07:00:00 7.2 2 Oeste 6 Oeste 0 -- -- 77
2018-04-27 06:00:00 7.9 4 Oeste 8 Sudoeste 0 -- -- 70
2018-04-27 05:00:00 8.1 3 Oeste 6 Sudoeste 0 -- -- 85
2018-04-27 04:00:00 9 2 Sudoeste 8 Sudoeste 0 -- -- 88
2018-04-27 03:00:00 9.9 2 Sudoeste 9 Sudoeste 0 -- -- 88
2018-04-27 02:00:00 10.9 3 Oeste 17 Sudeste 0 -- -- 87
2018-04-27 01:00:00 9.3 4 Oeste 14 Noroeste 0.2 -- -- 95
2018-04-27 00:00:00 7.9 0 Calma 4 Sur 0 -- -- 93
2018-04-26 23:00:00 8 0 Calma 4 Sur 0 -- -- 93
2018-04-26 22:00:00 8.6 0 Calma 4 Sudoeste 0 -- -- 90
2018-04-26 21:00:00 10 0 Calma 3 Oeste 0 -- -- 85
2018-04-26 20:00:00 12 0 Calma 8 Oeste 0 -- -- 79
2018-04-26 19:00:00 15 3 Sudoeste 9 Sudoeste 0 -- -- 65
2018-04-26 18:00:00 15.6 4 Sur 16 Oeste 0 -- -- 62
2018-04-26 17:00:00 15.5 4 Sudeste 11 Sudoeste 0 -- -- 62
2018-04-26 16:00:00 14.2 5 Sudeste 13 Este 0 -- -- 68
2018-04-26 15:00:00 11.8 4 Sudeste 12 Sudoeste 0 -- -- 76
2018-04-26 14:00:00 10 5 Nordeste 10 Sudoeste 0 -- -- 81
2018-04-26 13:00:00 9.7 4 Sur 12 Sudoeste 0 -- -- 80
2018-04-26 12:00:00 9 4 Sudoeste 13 Sur 0 -- -- 83
2018-04-26 11:00:00 7.6 2 Sudeste 9 Este 0 -- -- 87
2018-04-26 10:00:00 7.2 5 Este 10 Este 0 -- -- 89
2018-04-26 09:00:00 5.2 0 Calma 3 Nordeste 0 -- -- 97
2018-04-26 08:00:00 4.7 0 Calma 3 Sudeste 0 -- -- 98
2018-04-26 07:00:00 4.7 0 Calma 6 Sur 0.2 -- -- 99
2018-04-26 06:00:00 5.2 0 Calma 3 Sur 0 -- -- 99
2018-04-26 05:00:00 5.5 0 Calma 5 Sudoeste 0.2 -- -- 99
2018-04-26 04:00:00 5.7 0 Calma 4 Sur 0 -- -- 100
2018-04-26 03:00:00 5.7 0 Calma 6 Sudoeste 0 -- -- 100
2018-04-26 02:00:00 5.9 2 Sudoeste 7 Sur 0 -- -- 100
2018-04-26 01:00:00 6.3 3 Sudoeste 10 Sudoeste 0.2 -- -- 100
2018-04-26 00:00:00 6.8 3 Sur 6 Sudoeste 0.2 -- -- 99
2018-04-25 23:00:00 7.3 2 Sudoeste 9 Sur 0.2 -- -- 99
2018-04-25 22:00:00 7.6 2 Sur 8 Sudoeste 0.4 -- -- 99
2018-04-25 21:00:00 8.1 3 Sudoeste 8 Sudoeste 0.2 -- -- 98
2018-04-25 20:00:00 8.6 2 Sudoeste 9 Sudoeste 0.2 -- -- 97
2018-04-25 19:00:00 9.2 0 Calma 7 Sudoeste 0.2 -- -- 95
2018-04-25 18:00:00 9.9 3 Este 10 Sudoeste 0 -- -- 94
2018-04-25 17:00:00 10.6 5 Sudoeste 10 Sur 0 -- -- 93
2018-04-25 16:00:00 10.8 4 Sudoeste 10 Sudeste 0 -- -- 91
2018-04-25 15:00:00 11.3 4 Sudoeste 14 Sudoeste 0 -- -- 90
2018-04-25 14:00:00 13.3 5 Sur 14 Sur 0 -- -- 81
2018-04-25 13:00:00 13.5 5 Sur 15 Sur 0 -- -- 79
2018-04-25 12:00:00 12.7 4 Sudeste 12 Este 0 -- -- 80
2018-04-25 11:00:00 11 3 Nordeste 9 Noroeste 0 -- -- 84
2018-04-25 10:00:00 9.4 2 Sudeste 6 Este 0 -- -- 91
2018-04-25 09:00:00 8.3 2 Norte 4 Noroeste 0 -- -- 97
2018-04-25 08:00:00 7.7 3 Oeste 5 Noroeste 0 -- -- 99
2018-04-25 07:00:00 7.7 2 Este 4 Este 0 -- -- 100
2018-04-25 06:00:00 7.4 0 Calma 5 Este 0 -- -- 99
2018-04-25 05:00:00 7.1 0 Calma 4 Oeste 0 -- -- 98
2018-04-25 04:00:00 7.6 0 Calma 3 Noroeste 0 -- -- 96
2018-04-25 03:00:00 9 0 Calma 3 Sur 0 -- -- 89
2018-04-25 02:00:00 11.1 0 Calma 4 Sur 0 -- -- 73
2018-04-25 01:00:00 11.6 0 Calma 3 Oeste 0 -- -- 73
2018-04-25 00:00:00 11.9 0 Calma 3 Oeste 0 -- -- 72
2018-04-24 23:00:00 12.7 0 Calma 4 Oeste 0 -- -- 69
2018-04-24 22:00:00 14.1 0 Calma 6 Oeste 0 -- -- 62
2018-04-24 21:00:00 16.7 3 Oeste 9 Sudoeste 0 -- -- 54
2018-04-24 20:00:00 18.7 4 Sudoeste 9 Sudoeste 0 -- -- 48
2018-04-24 19:00:00 20.7 0 Calma 10 Nordeste 0 -- -- 42
2018-04-24 18:00:00 22.4 7 Sudoeste 23 Sudoeste 0 -- -- 40
2018-04-24 17:00:00 23.4 7 Sur 16 Sudoeste 0 -- -- 39
2018-04-24 16:00:00 22.2 7 Sur 17 Este 0 -- -- 37
2018-04-24 15:00:00 23 4 Nordeste 14 Sudoeste 0 -- -- 36
2018-04-24 14:00:00 23.6 5 Norte 17 Sudoeste 0 -- -- 33
2018-04-24 13:00:00 22.8 5 Norte 19 Noroeste 0 -- -- 34
2018-04-24 12:00:00 21.8 4 Nordeste 11 Nordeste 0 -- -- 37
2018-04-24 11:00:00 19.1 3 Este 10 Este 0 -- -- 43
2018-04-24 10:00:00 13.5 0 Calma 5 Sudeste 0 -- -- 68
2018-04-24 09:00:00 10.7 0 Calma 4 Oeste 0 -- -- 68
2018-04-24 08:00:00 10.3 0 Calma 4 Oeste 0 -- -- 67
2018-04-24 07:00:00 10.4 0 Calma 4 Sur 0 -- -- 67
2018-04-24 06:00:00 10.9 0 Calma 8 Sudoeste 0 -- -- 62
2018-04-24 05:00:00 10.4 0 Calma -- -- 0 -- -- 66
2018-04-24 04:00:00 10.4 0 Calma -- -- 0 -- -- 69
2018-04-24 03:00:00 10.5 0 Calma 3 Oeste 0 -- -- 69
2018-04-24 02:00:00 10.6 0 Calma 4 Oeste 0 -- -- 71
2018-04-24 01:00:00 10.1 0 Calma 3 Noroeste 0 -- -- 78
2018-04-24 00:00:00 10.1 0 Calma 3 Sudoeste 0 -- -- 87
2018-04-23 23:00:00 11 0 Calma 4 Noroeste 0 -- -- 85
2018-04-23 22:00:00 12.1 0 Calma 3 Sudeste 0 -- -- 89
2018-04-23 21:00:00 13.2 2 Sudeste 7 Este 0 -- -- 84
2018-04-23 20:00:00 15.4 3 Sur 12 Sudoeste 0 -- -- 72
2018-04-23 19:00:00 17.9 5 Sudoeste 16 Sudoeste 0 -- -- 61
2018-04-23 18:00:00 20.3 7 Sur 18 Sudoeste 0 -- -- 53
2018-04-23 17:00:00 20.8 5 Sudoeste 18 Sudoeste 0 -- -- 46
2018-04-23 16:00:00 21.2 7 Sur 20 Sudoeste 0 -- -- 48
2018-04-23 15:00:00 20.3 5 Sur 15 Sudoeste 0 -- -- 48
2018-04-23 14:00:00 19.4 4 Sudeste 16 Sudoeste 0 -- -- 56
2018-04-23 13:00:00 17.5 5 Sudoeste 12 Sur 0 -- -- 63
2018-04-23 12:00:00 15.3 4 Sudeste 10 Este 0 -- -- 68
2018-04-23 11:00:00 11.4 5 Este 9 Este 0 -- -- 83
2018-04-23 10:00:00 9 3 Este 5 Este 0 -- -- 93
2018-04-23 09:00:00 8.2 2 Este 5 Nordeste 0 -- -- 97
2018-04-23 08:00:00 7.1 0 Calma 4 Sudoeste 0 -- -- 91
2018-04-23 07:00:00 7.4 0 Calma 3 Sudoeste 0 -- -- 88
2018-04-23 06:00:00 7.7 0 Calma 3 Noroeste 0 -- -- 89
2018-04-23 05:00:00 8.6 0 Calma 3 Oeste 0 -- -- 91
2018-04-23 04:00:00 9.5 0 Calma 4 Sur 0 -- -- 92
2018-04-23 03:00:00 10 2 Sur 5 Sur 0 -- -- 93
2018-04-23 02:00:00 10.4 0 Calma 4 Sudoeste 0 -- -- 96
2018-04-23 01:00:00 10.7 2 Sudeste 6 Sur 0 -- -- 96
2018-04-23 00:00:00 11 0 Calma 7 Sudoeste 0 -- -- 94
2018-04-22 23:00:00 11.6 0 Calma 10 Sudoeste 0 -- -- 90
2018-04-22 22:00:00 12.9 3 Sudeste 15 Oeste 0 -- -- 83
2018-04-22 21:00:00 15.2 2 Sudoeste 9 Sudoeste 0 -- -- 68
2018-04-22 20:00:00 16.7 4 Sudoeste 10 Sur 0 -- -- 58
2018-04-22 19:00:00 18.5 2 Sur 13 Oeste 0 -- -- 50
2018-04-22 18:00:00 18.9 4 Sudeste 19 Noroeste 0 -- -- 38
2018-04-22 17:00:00 19.8 6 Norte 18 Noroeste 0 -- -- 39
2018-04-22 16:00:00 19.4 6 Noroeste 17 Sur 0 -- -- 40
2018-04-22 15:00:00 18.4 7 Sudeste 19 Sudoeste 0 -- -- 44
2018-04-22 14:00:00 17 5 Este 14 Norte 0 -- -- 49
2018-04-22 13:00:00 17 5 Norte 16 Noroeste 0 -- -- 47
2018-04-22 12:00:00 15.7 3 Sudeste 9 Noroeste 0 -- -- 52
2018-04-22 11:00:00 13.8 3 Noroeste 5 Noroeste 0 -- -- 61
2018-04-22 10:00:00 12.6 0 Calma 3 Sudoeste 0 -- -- 62
2018-04-22 09:00:00 11.9 0 Calma 4 Nordeste 0 -- -- 68
2018-04-22 08:00:00 10.8 0 Calma 6 Noroeste 0 -- -- 64
2018-04-22 07:00:00 10 2 Norte 7 Norte 0 -- -- 68
2018-04-22 06:00:00 10.4 0 Calma 8 Noroeste 0 -- -- 64
2018-04-22 05:00:00 10.7 3 Sudoeste 7 Oeste 0 -- -- 56
2018-04-22 04:00:00 11.5 3 Oeste 9 Noroeste 0 -- -- 52
2018-04-22 03:00:00 12.1 3 Sur 7 Oeste 0 -- -- 46
2018-04-22 02:00:00 12.3 2 Oeste 7 Norte 0 -- -- 48
2018-04-22 01:00:00 11.5 3 Noroeste 6 Oeste 0 -- -- 57
2018-04-22 00:00:00 11.7 3 Oeste 5 Oeste 0 -- -- 61